createdAt,value
2023-05-13T00:02:09.342Z,100591.88
2023-05-13T00:04:39.727Z,100594.70
2023-05-13T00:07:09.477Z,100596.95
2023-05-13T00:09:39.285Z,100591.66
2023-05-13T00:12:09.310Z,100588.65
2023-05-13T00:14:39.110Z,100588.55
2023-05-13T00:17:09.035Z,100583.27
2023-05-13T00:19:38.945Z,100578.64
2023-05-13T00:22:08.693Z,100582.69
2023-05-13T00:24:38.556Z,100577.22
2023-05-13T00:27:08.664Z,100584.09
2023-05-13T00:29:38.551Z,100578.84
2023-05-13T00:32:08.486Z,100579.73
2023-05-13T00:34:38.292Z,100579.73
2023-05-13T00:37:09.444Z,100578.59
2023-05-13T00:39:39.274Z,100582.22
2023-05-13T00:42:10.575Z,100584.16
2023-05-13T00:44:40.847Z,100579.56
2023-05-13T00:47:12.899Z,100583.70
2023-05-13T00:49:43.406Z,100584.94
2023-05-13T00:52:13.384Z,100585.48
2023-05-13T00:54:43.333Z,100590.20
2023-05-13T00:57:13.243Z,100598.94
2023-05-13T00:59:43.052Z,100598.94
2023-05-13T01:02:21.346Z,100597.40
2023-05-13T01:05:12.164Z,100609.47
2023-05-13T01:08:00.276Z,100615.05
2023-05-13T01:10:35.760Z,100623.33
2023-05-13T01:13:09.683Z,100612.72
2023-05-13T01:15:42.807Z,100625.33
2023-05-13T01:18:18.679Z,100627.50
2023-05-13T01:20:48.534Z,100627.22
2023-05-13T01:23:18.376Z,100626.32
2023-05-13T01:25:49.103Z,100624.59
2023-05-13T01:28:19.678Z,100628.61
2023-05-13T01:30:52.129Z,100626.11
2023-05-13T01:33:22.090Z,100629.22
2023-05-13T01:35:53.010Z,100622.34
2023-05-13T01:38:24.035Z,100623.27
2023-05-13T01:40:57.079Z,100618.67
2023-05-13T01:43:26.023Z,100621.08
2023-05-13T01:45:57.976Z,100622.34
2023-05-13T01:48:28.166Z,100616.73
2023-05-13T01:50:59.001Z,100623.01
2023-05-13T01:53:28.790Z,100626.27
2023-05-13T01:55:58.659Z,100628.98
2023-05-13T01:58:28.818Z,100629.41
2023-05-13T02:00:58.624Z,100633.14
2023-05-13T02:03:28.597Z,100632.69
2023-05-13T02:05:58.515Z,100631.06
2023-05-13T02:08:28.627Z,100631.64
2023-05-13T02:11:00.151Z,100633.31
2023-05-13T02:13:31.055Z,100637.16
2023-05-13T02:16:00.871Z,100638.84
2023-05-13T02:18:31.635Z,100630.03
2023-05-13T02:21:01.648Z,100635.76
2023-05-13T02:23:31.452Z,100633.70
2023-05-13T02:26:01.292Z,100638.96
2023-05-13T02:28:31.359Z,100637.27
2023-05-13T02:31:01.215Z,100634.86
2023-05-13T02:33:31.844Z,100634.40
2023-05-13T02:36:01.680Z,100634.55
2023-05-13T02:38:31.906Z,100632.85
2023-05-13T02:41:03.152Z,100629.45
2023-05-13T02:43:34.055Z,100632.27
2023-05-13T02:46:05.895Z,100628.86
2023-05-13T02:48:35.926Z,100628.62
2023-05-13T02:51:06.441Z,100633.11
2023-05-13T02:53:36.241Z,100630.86
2023-05-13T02:56:07.723Z,100635.50
2023-05-13T02:58:37.999Z,100640.44
2023-05-13T03:01:08.266Z,100641.60
2023-05-13T03:03:38.123Z,100637.42
2023-05-13T03:06:08.175Z,100640.13
2023-05-13T03:08:38.369Z,100644.37
2023-05-13T03:11:08.160Z,100643.91
2023-05-13T03:13:38.013Z,100647.92
2023-05-13T03:16:07.932Z,100650.07
2023-05-13T03:18:38.164Z,100650.00
2023-05-13T03:21:08.163Z,100647.69
2023-05-13T03:23:38.163Z,100649.53
2023-05-13T03:26:08.321Z,100649.46
2023-05-13T03:28:38.435Z,100650.84
2023-05-13T03:31:08.326Z,100651.77
2023-05-13T03:33:40.187Z,100653.56
2023-05-13T03:36:10.388Z,100655.52
2023-05-13T03:38:40.217Z,100652.34
2023-05-13T03:41:10.120Z,100651.22
2023-05-13T03:43:40.013Z,100658.20
2023-05-13T03:46:11.548Z,100653.58
2023-05-13T03:48:41.793Z,100657.06
2023-05-13T03:51:11.335Z,100659.85
2023-05-13T03:53:41.992Z,100655.34
2023-05-13T03:56:11.880Z,100657.44
2023-05-13T03:58:42.309Z,100661.20
2023-05-13T04:01:12.117Z,100665.87
2023-05-13T04:03:43.547Z,100665.87
2023-05-13T04:06:14.581Z,100666.52
2023-05-13T04:08:44.406Z,100660.70
2023-05-13T04:11:14.204Z,100664.03
2023-05-13T04:13:45.777Z,100671.94
2023-05-13T04:16:15.572Z,100673.28
2023-05-13T04:18:45.488Z,100676.13
2023-05-13T04:21:15.253Z,100677.30
2023-05-13T04:23:45.174Z,100680.29
2023-05-13T04:26:14.974Z,100678.40
2023-05-13T04:28:44.944Z,100681.85
2023-05-13T04:31:14.925Z,100681.08
2023-05-13T04:33:45.266Z,100683.48
2023-05-13T04:36:15.242Z,100681.27
2023-05-13T04:38:45.395Z,100680.66
2023-05-13T04:41:15.728Z,100685.48
2023-05-13T04:43:46.228Z,100679.83
2023-05-13T04:46:15.899Z,100686.31
2023-05-13T04:48:48.684Z,100678.14
2023-05-13T04:51:20.671Z,100679.24
2023-05-13T04:53:50.953Z,100676.11
2023-05-13T04:56:22.519Z,100679.78
2023-05-13T04:58:52.222Z,100669.49
2023-05-13T05:01:22.852Z,100675.44
2023-05-13T05:03:52.780Z,100681.19
2023-05-13T05:06:22.644Z,100674.73
2023-05-13T05:08:52.803Z,100679.83
2023-05-13T05:11:23.186Z,100676.20
2023-05-13T05:13:53.681Z,100676.63
2023-05-13T05:16:23.771Z,100677.27
2023-05-13T05:18:53.800Z,100678.07
2023-05-13T05:21:24.983Z,100674.71
2023-05-13T05:23:55.000Z,100676.53
2023-05-13T05:26:25.078Z,100684.37
2023-05-13T05:28:54.897Z,100680.91
2023-05-13T05:31:27.088Z,100683.20
2023-05-13T05:33:59.152Z,100683.20
2023-05-13T05:36:29.859Z,100680.75
2023-05-13T05:38:59.471Z,100678.88
2023-05-13T05:41:31.230Z,100689.69
2023-05-13T05:44:01.330Z,100683.89
2023-05-13T05:46:31.627Z,100686.41
2023-05-13T05:49:03.550Z,100692.05
2023-05-13T05:51:35.250Z,100698.43
2023-05-13T05:54:06.736Z,100692.13
2023-05-13T05:56:36.800Z,100698.46
2023-05-13T05:59:07.784Z,100694.22
2023-05-13T06:01:38.096Z,100698.98
2023-05-13T06:04:07.833Z,100744.28
2023-05-13T06:06:39.430Z,100683.42
2023-05-13T06:09:09.138Z,100701.66
2023-05-13T06:11:38.949Z,100696.24
2023-05-13T06:14:08.752Z,100694.17
2023-05-13T06:16:38.564Z,100690.36
2023-05-13T06:19:08.642Z,100694.58
2023-05-13T06:21:38.424Z,100696.34
2023-05-13T06:24:08.614Z,100695.96
2023-05-13T06:26:38.630Z,100695.96
2023-05-13T06:29:08.436Z,100693.84
2023-05-13T06:31:38.667Z,100701.14
2023-05-13T06:34:08.279Z,100699.13
2023-05-13T06:36:38.096Z,100693.87
2023-05-13T06:39:11.273Z,100693.52
2023-05-13T06:41:41.904Z,100696.44
2023-05-13T06:44:13.414Z,100695.92
2023-05-13T06:46:45.314Z,100701.98
2023-05-13T06:49:15.029Z,100706.55
2023-05-13T06:51:44.853Z,100704.42
2023-05-13T06:54:14.616Z,100710.64
2023-05-13T06:56:44.468Z,100707.16
2023-05-13T06:59:14.330Z,100703.35
2023-05-13T07:01:44.425Z,100713.92
2023-05-13T07:04:14.021Z,100713.66
2023-05-13T07:06:43.912Z,100710.48
2023-05-13T07:09:14.688Z,100709.93
2023-05-13T07:11:44.504Z,100703.25
2023-05-13T07:14:14.029Z,100704.72
2023-05-13T07:16:44.219Z,100695.38
2023-05-13T07:19:14.025Z,100697.83
2023-05-13T07:21:44.017Z,100696.78
2023-05-13T07:24:13.561Z,100697.92
2023-05-13T07:26:43.330Z,100706.64
2023-05-13T07:29:13.012Z,100706.75
2023-05-13T07:31:42.819Z,100703.73
2023-05-13T07:34:12.640Z,100705.25
2023-05-13T07:36:42.445Z,100703.58
2023-05-13T07:39:12.273Z,100703.86
2023-05-13T07:41:42.326Z,100697.32
2023-05-13T07:44:13.162Z,100701.51
2023-05-13T07:46:43.027Z,100703.91
2023-05-13T07:49:12.841Z,100707.00
2023-05-13T07:51:42.653Z,100710.05
2023-05-13T07:54:12.493Z,100710.05
2023-05-13T07:56:44.136Z,100706.64
2023-05-13T07:59:14.347Z,100709.94
2023-05-13T08:01:44.478Z,100705.89
2023-05-13T08:04:14.421Z,100708.13
2023-05-13T08:06:44.407Z,100698.84
2023-05-13T08:09:14.235Z,100711.18
2023-05-13T08:11:44.008Z,100707.67
2023-05-13T08:14:13.823Z,100709.24
2023-05-13T08:16:43.656Z,100711.33
2023-05-13T08:19:14.997Z,100711.45
2023-05-13T08:21:44.647Z,100716.70
2023-05-13T08:24:14.511Z,100712.23
2023-05-13T08:26:44.168Z,100714.26
2023-05-13T08:29:15.624Z,100705.70
2023-05-13T08:31:45.533Z,100716.07
2023-05-13T08:34:15.184Z,100711.33
2023-05-13T08:36:45.094Z,100709.29
2023-05-13T08:39:14.912Z,100716.06
2023-05-13T08:41:46.715Z,100714.08
2023-05-13T08:44:19.072Z,100716.73
2023-05-13T08:46:51.915Z,100711.86
2023-05-13T08:49:22.198Z,100712.06
2023-05-13T08:51:51.952Z,100707.97
2023-05-13T08:54:23.971Z,100717.75
2023-05-13T08:56:54.230Z,100710.34
2023-05-13T08:59:24.434Z,100704.84
2023-05-13T09:01:56.348Z,100702.48
2023-05-13T09:04:26.967Z,100713.02
2023-05-13T09:06:57.274Z,100706.83
2023-05-13T09:09:27.096Z,100700.80
2023-05-13T09:11:56.814Z,100707.06
2023-05-13T09:14:32.963Z,100707.41
2023-05-13T09:17:03.212Z,100702.11
2023-05-13T09:19:33.361Z,100699.27
2023-05-13T09:22:03.402Z,100700.02
2023-05-13T09:24:33.580Z,100695.25
2023-05-13T09:27:03.101Z,100698.89
2023-05-13T09:29:33.272Z,100695.91
2023-05-13T09:32:04.582Z,100695.84
2023-05-13T09:34:35.754Z,100700.27
2023-05-13T09:37:10.429Z,100711.00
2023-05-13T09:39:42.130Z,100699.50
2023-05-13T09:42:19.490Z,100693.75
2023-05-13T09:44:49.732Z,100694.56
2023-05-13T09:47:19.371Z,100691.38
2023-05-13T09:49:52.252Z,100692.59
2023-05-13T09:52:23.830Z,100694.69
2023-05-13T09:54:53.628Z,100702.73
2023-05-13T09:57:23.156Z,100700.27
2023-05-13T09:59:52.997Z,100674.99
2023-05-13T10:02:22.939Z,100674.99
2023-05-13T10:04:55.690Z,100686.78
2023-05-13T10:07:26.463Z,100702.81
2023-05-13T10:09:59.295Z,100697.27
2023-05-13T10:12:29.968Z,100699.57
2023-05-13T10:15:01.442Z,100692.17
2023-05-13T10:17:34.048Z,100688.12
2023-05-13T10:20:06.028Z,100686.17
2023-05-13T10:22:35.912Z,100691.19
2023-05-13T10:25:07.304Z,100690.27
2023-05-13T10:27:37.665Z,100693.80
2023-05-13T10:30:09.752Z,100696.84
2023-05-13T10:32:41.081Z,100686.48
2023-05-13T10:35:13.676Z,100691.63
2023-05-13T10:38:06.104Z,100688.28
2023-05-13T10:41:03.054Z,100681.75
2023-05-13T10:43:35.111Z,100681.48
2023-05-13T10:46:08.354Z,100676.28
2023-05-13T10:48:50.990Z,100686.20
2023-05-13T10:51:23.685Z,100676.77
2023-05-13T10:54:01.187Z,100685.81
2023-05-13T10:56:31.009Z,100685.81
2023-05-13T10:59:03.860Z,100682.97
2023-05-13T11:01:42.591Z,100656.75
2023-05-13T11:04:21.672Z,100656.75
2023-05-13T11:06:52.850Z,100679.07
2023-05-13T11:09:25.790Z,100686.08
2023-05-13T11:11:57.937Z,100664.47
2023-05-13T11:14:32.572Z,100664.47
2023-05-13T11:17:06.291Z,100668.48
2023-05-13T11:19:49.472Z,100669.33
2023-05-13T11:22:25.012Z,100680.86
2023-05-13T11:25:09.707Z,100682.78
2023-05-13T11:27:41.363Z,100672.02
2023-05-13T11:30:26.011Z,100667.02
2023-05-13T11:32:58.398Z,100678.17
2023-05-13T11:35:33.598Z,100671.56
2023-05-13T11:38:05.705Z,100680.77
2023-05-13T11:40:38.234Z,100665.46
2023-05-13T11:43:08.842Z,100681.91
2023-05-13T11:45:41.159Z,100675.89
2023-05-13T11:48:22.232Z,100678.54
2023-05-13T11:50:52.810Z,100679.39
2023-05-13T11:53:23.368Z,100678.07
2023-05-13T11:55:53.093Z,100677.08
2023-05-13T11:58:23.154Z,100680.78
2023-05-13T12:00:54.472Z,100675.23
2023-05-13T12:03:24.442Z,100682.14
2023-05-13T12:06:02.313Z,100680.02
2023-05-13T12:08:32.543Z,100670.63
2023-05-13T12:11:02.524Z,100677.94
2023-05-13T12:13:32.053Z,100672.28
2023-05-13T12:16:01.913Z,100673.56
2023-05-13T12:18:33.655Z,100643.91
2023-05-13T12:21:06.768Z,100643.91
2023-05-13T12:23:42.673Z,100664.13
2023-05-13T12:26:12.928Z,100665.95
2023-05-13T12:28:42.751Z,100668.86
2023-05-13T12:31:15.556Z,100678.08
2023-05-13T12:33:47.637Z,100674.56
2023-05-13T12:36:38.425Z,100668.52
2023-05-13T12:39:15.103Z,100663.14
2023-05-13T12:41:48.118Z,100664.11
2023-05-13T12:44:18.269Z,100674.72
2023-05-13T12:46:57.081Z,100677.41
2023-05-13T12:49:26.875Z,100675.84
2023-05-13T12:51:57.080Z,100658.05
2023-05-13T12:54:26.831Z,100658.05
2023-05-13T12:56:56.961Z,100682.61
2023-05-13T12:59:28.389Z,100675.19
2023-05-13T13:01:58.402Z,100682.20
2023-05-13T13:04:28.384Z,100673.50
2023-05-13T13:06:57.933Z,100671.64
2023-05-13T13:09:27.703Z,100674.67
2023-05-13T13:11:57.787Z,100673.75
2023-05-13T13:14:27.583Z,100674.91
2023-05-13T13:16:57.549Z,100681.61
2023-05-13T13:19:27.492Z,100677.42
2023-05-13T13:21:57.327Z,100673.00
2023-05-13T13:24:27.136Z,100673.00
2023-05-13T13:26:58.406Z,100681.60
2023-05-13T13:29:28.450Z,100671.84
2023-05-13T13:31:58.353Z,100647.44
2023-05-13T13:34:28.212Z,100647.44
2023-05-13T13:36:58.022Z,100666.98
2023-05-13T13:39:28.320Z,100671.36
2023-05-13T13:41:58.311Z,100669.69
2023-05-13T13:44:28.672Z,100671.00
2023-05-13T13:46:58.577Z,100671.00
2023-05-13T13:49:28.526Z,100680.58
2023-05-13T13:51:58.639Z,100675.90
2023-05-13T13:54:28.458Z,100679.95
2023-05-13T13:56:58.494Z,100680.13
2023-05-13T13:59:28.396Z,100680.13
2023-05-13T14:01:58.708Z,100683.59
2023-05-13T14:04:30.090Z,100671.95
2023-05-13T14:07:00.237Z,100652.25
2023-05-13T14:09:29.919Z,100652.25
2023-05-13T14:11:59.969Z,100679.16
2023-05-13T14:14:29.816Z,100670.90
2023-05-13T14:17:00.330Z,100682.38
2023-05-13T14:19:29.867Z,100673.06
2023-05-13T14:21:59.720Z,100673.88
2023-05-13T14:24:29.642Z,100676.95
2023-05-13T14:27:00.047Z,100651.27
2023-05-13T14:29:29.779Z,100651.27
2023-05-13T14:32:01.388Z,100670.81
2023-05-13T14:34:31.469Z,100670.38
2023-05-13T14:37:01.278Z,100673.96
2023-05-13T14:39:31.095Z,100667.31
2023-05-13T14:42:01.389Z,100672.86
2023-05-13T14:44:30.906Z,100673.36
2023-05-13T14:47:01.086Z,100674.72
2023-05-13T14:49:31.057Z,100663.97
2023-05-13T14:52:00.881Z,100659.59
2023-05-13T14:54:32.333Z,100668.50
2023-05-13T14:57:03.093Z,100660.10
2023-05-13T14:59:34.140Z,100653.49
2023-05-13T15:02:05.062Z,100661.28
2023-05-13T15:04:33.844Z,100661.61
2023-05-13T15:07:03.853Z,100661.28
2023-05-13T15:09:33.591Z,100643.03
2023-05-13T15:12:03.234Z,100639.82
2023-05-13T15:14:33.332Z,100647.40
2023-05-13T15:17:03.357Z,100645.48
2023-05-13T15:19:33.271Z,100645.16
2023-05-13T15:22:04.637Z,100650.87
2023-05-13T15:24:34.430Z,100659.94
2023-05-13T15:27:04.333Z,100660.25
2023-05-13T15:29:34.304Z,100653.38
2023-05-13T15:32:06.116Z,100658.91
2023-05-13T15:34:35.974Z,100656.39
2023-05-13T15:37:06.168Z,100656.77
2023-05-13T15:39:35.991Z,100659.30
2023-05-13T15:42:06.903Z,100646.11
2023-05-13T15:44:37.024Z,100660.77
2023-05-13T15:47:07.531Z,100654.89
2023-05-13T15:49:37.432Z,100654.89
2023-05-13T15:52:07.410Z,100657.44
2023-05-13T15:54:37.177Z,100651.29
2023-05-13T15:57:07.155Z,100655.27
2023-05-13T15:59:36.957Z,100651.22
2023-05-13T16:02:07.408Z,100634.27
2023-05-13T16:04:37.766Z,100634.27
2023-05-13T16:07:12.247Z,100648.91
2023-05-13T16:09:42.455Z,100644.92
2023-05-13T16:12:12.262Z,100647.42
2023-05-13T16:14:42.044Z,100647.05
2023-05-13T16:17:12.717Z,100640.09
2023-05-13T16:19:42.380Z,100639.41
2023-05-13T16:22:30.330Z,100639.24
2023-05-13T16:25:02.512Z,100643.41
2023-05-13T16:27:33.440Z,100648.96
2023-05-13T16:30:04.606Z,100645.16
2023-05-13T16:32:37.996Z,100636.25
2023-05-13T16:35:08.316Z,100638.62
2023-05-13T16:37:37.836Z,100633.42
2023-05-13T16:40:08.276Z,100631.70
2023-05-13T16:42:38.272Z,100625.26
2023-05-13T16:45:09.048Z,100625.26
2023-05-13T16:47:39.382Z,100626.22
2023-05-13T16:50:09.405Z,100628.67
2023-05-13T16:52:39.089Z,100624.33
2023-05-13T16:55:09.089Z,100623.64
2023-05-13T16:57:38.902Z,100630.20
2023-05-13T17:00:09.208Z,100630.41
2023-05-13T17:02:38.121Z,100631.52
2023-05-13T17:05:08.013Z,100628.56
2023-05-13T17:07:37.986Z,100626.58
2023-05-13T17:10:08.515Z,100622.47
2023-05-13T17:12:38.040Z,100624.72
2023-05-13T17:15:08.208Z,100623.33
2023-05-13T17:17:37.911Z,100625.02
2023-05-13T17:20:08.311Z,100623.67
2023-05-13T17:22:38.422Z,100626.16
2023-05-13T17:25:08.935Z,100623.93
2023-05-13T17:27:38.460Z,100621.59
2023-05-13T17:30:09.175Z,100619.37
2023-05-13T17:32:38.051Z,100615.34
2023-05-13T17:35:08.423Z,100609.98
2023-05-13T17:37:38.519Z,100617.87
2023-05-13T17:40:09.240Z,100613.66
2023-05-13T17:42:39.181Z,100613.29
2023-05-13T17:45:10.250Z,100616.39
2023-05-13T17:47:39.134Z,100615.80
2023-05-13T17:50:09.539Z,100612.12
2023-05-13T17:52:39.158Z,100609.39
2023-05-13T17:55:09.678Z,100616.13
2023-05-13T17:57:39.922Z,100612.27
2023-05-13T18:00:10.002Z,100614.86
2023-05-13T18:02:42.973Z,100616.41
2023-05-13T18:05:12.961Z,100621.23
2023-05-13T18:07:42.906Z,100622.39
2023-05-13T18:10:12.587Z,100621.05
2023-05-13T18:12:42.372Z,100617.67
2023-05-13T18:15:12.116Z,100624.63
2023-05-13T18:17:42.255Z,100608.87
2023-05-13T18:20:13.076Z,100608.87
2023-05-13T18:22:43.030Z,100622.59
2023-05-13T18:25:13.203Z,100622.59
2023-05-13T18:27:43.005Z,100623.84
2023-05-13T18:30:13.380Z,100627.35
2023-05-13T18:32:42.931Z,100619.78
2023-05-13T18:35:12.747Z,100626.23
2023-05-13T18:37:42.632Z,100627.89
2023-05-13T18:40:12.597Z,100631.72
2023-05-13T18:42:42.400Z,100633.91
2023-05-13T18:45:12.650Z,100635.44
2023-05-13T18:47:42.218Z,100643.34
2023-05-13T18:50:12.298Z,100648.48
2023-05-13T18:52:42.089Z,100649.73
2023-05-13T18:55:11.745Z,100644.70
2023-05-13T18:57:41.719Z,100653.67
2023-05-13T19:00:12.062Z,100654.31
2023-05-13T19:02:42.154Z,100660.59
2023-05-13T19:05:12.016Z,100658.89
2023-05-13T19:07:41.881Z,100661.20
2023-05-13T19:10:11.572Z,100662.76
2023-05-13T19:12:41.744Z,100664.09
2023-05-13T19:15:11.841Z,100661.16
2023-05-13T19:17:42.234Z,100663.34
2023-05-13T19:20:12.517Z,100667.42
2023-05-13T19:22:42.598Z,100674.16
2023-05-13T19:25:12.503Z,100673.44
2023-05-13T19:27:42.249Z,100681.17
2023-05-13T19:30:12.851Z,100662.95
2023-05-13T19:32:43.464Z,100678.42
2023-05-13T19:35:13.318Z,100672.39
2023-05-13T19:37:43.272Z,100680.23
2023-05-13T19:40:13.231Z,100675.84
2023-05-13T19:42:42.972Z,100685.97
2023-05-13T19:45:12.785Z,100685.97
2023-05-13T19:47:42.954Z,100680.00
2023-05-13T19:50:12.913Z,100686.78
2023-05-13T19:52:43.696Z,100684.86
2023-05-13T19:55:14.110Z,100686.23
2023-05-13T19:57:44.085Z,100691.22
2023-05-13T20:00:15.234Z,100687.64
2023-05-13T20:02:44.124Z,100693.25
2023-05-13T20:05:13.968Z,100688.22
2023-05-13T20:07:43.777Z,100692.46
2023-05-13T20:10:13.381Z,100690.97
2023-05-13T20:12:43.479Z,100685.92
2023-05-13T20:15:13.054Z,100689.66
2023-05-13T20:17:42.975Z,100690.53
2023-05-13T20:20:13.622Z,100692.19
2023-05-13T20:22:43.394Z,100687.78
2023-05-13T20:25:12.997Z,100687.73
2023-05-13T20:27:42.803Z,100686.03
2023-05-13T20:30:14.130Z,100686.56
2023-05-13T20:32:44.026Z,100685.44
2023-05-13T20:35:14.026Z,100682.91
2023-05-13T20:37:43.659Z,100686.18
2023-05-13T20:40:14.054Z,100682.62
2023-05-13T20:42:43.857Z,100681.87
2023-05-13T20:45:13.709Z,100676.64
2023-05-13T20:47:43.802Z,100679.19
2023-05-13T20:50:13.948Z,100679.28
2023-05-13T20:52:43.747Z,100680.80
2023-05-13T20:55:15.425Z,100684.10
2023-05-13T20:57:45.607Z,100683.09
2023-05-13T21:00:15.558Z,100683.48
2023-05-13T21:02:45.914Z,100687.44
2023-05-13T21:05:15.760Z,100682.62
2023-05-13T21:07:45.541Z,100682.81
2023-05-13T21:10:15.061Z,100692.09
2023-05-13T21:12:46.492Z,100684.26
2023-05-13T21:15:16.554Z,100684.26
2023-05-13T21:17:47.228Z,100686.33
2023-05-13T21:20:16.959Z,100693.02
2023-05-13T21:22:46.957Z,100684.00
2023-05-13T21:25:16.888Z,100684.74
2023-05-13T21:27:46.744Z,100686.52
2023-05-13T21:30:16.630Z,100687.17
2023-05-13T21:32:46.460Z,100688.85
2023-05-13T21:35:16.282Z,100690.91
2023-05-13T21:37:47.505Z,100684.87
2023-05-13T21:40:17.696Z,100692.16
2023-05-13T21:42:47.400Z,100689.22
2023-05-13T21:45:17.282Z,100687.52
2023-05-13T21:47:47.262Z,100685.01
2023-05-13T21:50:17.128Z,100679.91
2023-05-13T21:52:46.913Z,100684.13
2023-05-13T21:55:16.624Z,100683.83
2023-05-13T21:57:46.403Z,100683.92
2023-05-13T22:00:18.491Z,100690.01
2023-05-13T22:02:48.557Z,100683.12
2023-05-13T22:05:18.423Z,100675.03
2023-05-13T22:07:48.244Z,100677.97
2023-05-13T22:10:18.032Z,100677.97
2023-05-13T22:12:48.224Z,100682.73
2023-05-13T22:15:17.798Z,100679.92
2023-05-13T22:17:50.496Z,100687.23
2023-05-13T22:20:18.910Z,100682.52
2023-05-13T22:22:48.736Z,100679.75
2023-05-13T22:25:18.588Z,100678.98
2023-05-13T22:27:49.245Z,100673.89
2023-05-13T22:30:18.890Z,100675.36
2023-05-13T22:32:50.429Z,100676.20
2023-05-13T22:35:20.326Z,100670.09
2023-05-13T22:37:51.760Z,100665.37
2023-05-13T22:40:21.712Z,100668.00
2023-05-13T22:42:52.138Z,100670.04
2023-05-13T22:45:21.954Z,100668.97
2023-05-13T22:47:51.972Z,100668.23
2023-05-13T22:50:21.807Z,100660.81
2023-05-13T22:52:52.034Z,100667.84
2023-05-13T22:55:22.554Z,100666.00
2023-05-13T22:57:52.088Z,100663.23
2023-05-13T23:00:21.815Z,100672.44
2023-05-13T23:02:52.007Z,100667.33
2023-05-13T23:05:21.846Z,100671.14
2023-05-13T23:07:51.830Z,100675.34
2023-05-13T23:10:21.612Z,100669.84
2023-05-13T23:12:51.696Z,100663.79
2023-05-13T23:15:21.542Z,100663.79
2023-05-13T23:17:51.552Z,100663.84
2023-05-13T23:20:21.274Z,100666.17
2023-05-13T23:22:51.519Z,100664.17
2023-05-13T23:25:21.381Z,100664.80
2023-05-13T23:27:52.616Z,100670.30
2023-05-13T23:30:23.053Z,100660.93
2023-05-13T23:32:53.180Z,100653.27
2023-05-13T23:35:22.733Z,100661.80
2023-05-13T23:37:52.617Z,100663.84
2023-05-13T23:40:22.611Z,100657.13
2023-05-13T23:42:52.777Z,100659.76
2023-05-13T23:45:22.356Z,100654.41
2023-05-13T23:47:52.230Z,100658.76
2023-05-13T23:50:22.024Z,100658.38
2023-05-13T23:52:52.057Z,100659.81
2023-05-13T23:55:21.841Z,100653.16
2023-05-13T23:57:52.022Z,100649.37
